Time;durP1;ratioP1;P1;durP2;ratioP2;P2;SDS_P1;SDS_P2;PMS_P1;PMS_P2;Temp;Humidity;BMP_temperature;BMP_pressure;BME280_temperature;BME280_humidity;BME280_pressure;Samples;Min_cycle;Max_cycle;Signal;HPM_P1;HPM_P2
2021/07/25 00:01:02;;;;;;;8.20;5.33;;;22.00;39.10;;;;;;10426833;28;20508;-73
2021/07/25 00:06:06;;;;;;;11.87;5.47;;;22.00;39.70;;;;;;10422666;28;20230;-73
2021/07/25 00:11:09;;;;;;;10.47;5.70;;;21.90;39.30;;;;;;10426742;28;20237;-73
2021/07/25 00:16:14;;;;;;;8.13;4.73;;;21.80;39.30;;;;;;10423284;28;20236;-73
2021/07/25 00:21:18;;;;;;;8.17;5.20;;;21.80;39.70;;;;;;10432145;28;20233;-73
2021/07/25 00:26:26;;;;;;;6.27;4.83;;;21.70;39.60;;;;;;10423432;28;20236;-73
2021/07/25 00:31:30;;;;;;;6.80;4.60;;;21.70;39.70;;;;;;10422280;28;20235;-73
2021/07/25 00:36:34;;;;;;;9.70;5.30;;;21.60;39.80;;;;;;10432411;28;20742;-73
2021/07/25 00:41:37;;;;;;;6.17;5.00;;;21.60;39.70;;;;;;10433342;28;20312;-73
2021/07/25 00:46:42;;;;;;;8.03;4.97;;;21.60;39.70;;;;;;10422564;28;20230;-73
2021/07/25 00:51:45;;;;;;;6.97;5.20;;;21.50;39.90;;;;;;10422203;28;20233;-73
2021/07/25 00:56:49;;;;;;;6.30;4.80;;;21.40;39.50;;;;;;10427310;28;20235;-73
2021/07/25 01:01:54;;;;;;;5.40;4.90;;;21.30;39.50;;;;;;10425457;28;20761;-73
2021/07/25 01:07:07;;;;;;;7.30;4.90;;;21.20;40.90;;;;;;10421641;28;20229;-73
2021/07/25 01:12:23;;;;;;;5.40;4.90;;;21.10;40.80;;;;;;10421941;28;20221;-73
2021/07/25 01:17:30;;;;;;;6.93;4.73;;;21.00;41.30;;;;;;10420999;28;20225;-73
2021/07/25 01:22:38;;;;;;;5.50;5.00;;;21.00;40.90;;;;;;10422038;28;20244;-73
2021/07/25 01:27:45;;;;;;;5.00;4.60;;;20.90;41.20;;;;;;10423646;28;20733;-73
2021/07/25 01:32:50;;;;;;;7.83;5.17;;;20.90;41.00;;;;;;10420929;28;20229;-73
2021/07/25 01:37:57;;;;;;;5.97;4.87;;;20.80;40.80;;;;;;10420721;28;20231;-73
2021/07/25 01:43:00;;;;;;;11.00;4.90;;;20.80;40.90;;;;;;10422019;28;20225;-72
2021/07/25 01:48:04;;;;;;;9.10;4.50;;;20.80;40.40;;;;;;10422866;28;20699;-73
2021/07/25 01:53:09;;;;;;;8.07;4.67;;;20.70;40.50;;;;;;10419911;28;20236;-73
2021/07/25 01:58:12;;;;;;;8.23;4.90;;;20.70;41.20;;;;;;10419552;28;20221;-73
2021/07/25 02:03:20;;;;;;;9.03;4.83;;;20.70;40.80;;;;;;10425681;28;20244;-73
2021/07/25 02:08:25;;;;;;;6.97;5.00;;;20.70;41.40;;;;;;10421852;28;20228;-73
2021/07/25 02:13:28;;;;;;;6.03;5.20;;;20.80;41.20;;;;;;10426503;28;20229;-73
2021/07/25 02:18:31;;;;;;;6.83;4.67;;;20.70;40.80;;;;;;10423141;28;20230;-73
2021/07/25 02:23:35;;;;;;;7.80;4.30;;;20.70;40.90;;;;;;10427199;28;20235;-73
2021/07/25 02:28:39;;;;;;;8.77;4.57;;;20.60;41.60;;;;;;10420649;28;20233;-73
2021/07/25 02:33:42;;;;;;;9.97;5.23;;;20.60;41.50;;;;;;10421499;28;20245;-73
2021/07/25 02:38:46;;;;;;;5.97;4.40;;;20.60;41.50;;;;;;10422666;28;20229;-73
2021/07/25 02:43:49;;;;;;;7.57;4.80;;;20.60;42.00;;;;;;10425834;28;20237;-74
2021/07/25 02:48:52;;;;;;;6.47;4.83;;;20.50;41.60;;;;;;10421102;28;20240;-73
2021/07/25 02:53:57;;;;;;;8.17;5.07;;;20.50;42.60;;;;;;10422857;28;20231;-73
2021/07/25 02:59:00;;;;;;;6.27;4.63;;;20.40;42.60;;;;;;10428805;28;20230;-73
2021/07/25 03:04:03;;;;;;;5.60;4.50;;;20.40;42.30;;;;;;10426719;28;20225;-73
2021/07/25 03:09:08;;;;;;;5.40;4.67;;;20.30;42.50;;;;;;10432197;28;20233;-73
2021/07/25 03:14:11;;;;;;;9.37;4.30;;;20.30;43.30;;;;;;10433815;28;20232;-73
2021/07/25 03:19:14;;;;;;;10.93;4.70;;;20.30;42.90;;;;;;10425494;28;20238;-73
2021/07/25 03:24:19;;;;;;;8.13;4.40;;;20.30;42.70;;;;;;10429590;28;20243;-73
2021/07/25 03:29:22;;;;;;;8.37;4.60;;;20.30;43.40;;;;;;10426245;28;20240;-73
2021/07/25 03:34:29;;;;;;;5.27;4.17;;;20.30;43.20;;;;;;10431837;28;20236;-73
2021/07/25 03:39:34;;;;;;;8.07;5.00;;;20.30;43.70;;;;;;10421409;28;20685;-73
2021/07/25 03:44:37;;;;;;;10.63;4.97;;;20.30;43.80;;;;;;10425110;28;20633;-73
2021/07/25 03:49:40;;;;;;;5.10;4.63;;;20.30;43.50;;;;;;10420931;28;20237;-73
2021/07/25 03:54:46;;;;;;;4.97;4.40;;;20.30;43.40;;;;;;10425532;28;20241;-74
2021/07/25 03:59:49;;;;;;;7.90;5.10;;;20.30;44.00;;;;;;10431159;28;20236;-74
2021/07/25 04:04:52;;;;;;;5.90;4.50;;;20.30;43.60;;;;;;10423270;28;20230;-74
2021/07/25 04:09:57;;;;;;;8.50;4.93;;;20.30;43.70;;;;;;10424417;28;20736;-73
2021/07/25 04:15:02;;;;;;;6.67;4.80;;;20.40;44.20;;;;;;10426559;28;20602;-73
2021/07/25 04:20:06;;;;;;;7.00;4.60;;;20.30;44.30;;;;;;10423302;28;20233;-73
2021/07/25 04:25:11;;;;;;;6.20;4.33;;;20.30;44.10;;;;;;10424633;28;20225;-73
2021/07/25 04:30:15;;;;;;;7.10;4.77;;;20.20;44.50;;;;;;10423918;28;20230;-73
2021/07/25 04:35:20;;;;;;;7.17;4.57;;;20.20;44.30;;;;;;10420499;28;20225;-73
2021/07/25 04:40:25;;;;;;;4.90;4.40;;;20.20;44.40;;;;;;10430801;28;20721;-73
2021/07/25 04:45:41;;;;;;;7.33;4.53;;;20.20;45.10;;;;;;10435002;28;20221;-73
2021/07/25 04:50:47;;;;;;;6.03;4.10;;;20.20;45.20;;;;;;10429079;28;20240;-73
2021/07/25 04:55:57;;;;;;;7.80;4.30;;;20.20;45.10;;;;;;10435818;28;20236;-73
2021/07/25 05:01:03;;;;;;;9.80;4.57;;;20.20;46.10;;;;;;10433803;28;20225;-73
2021/07/25 05:06:09;;;;;;;5.80;4.37;;;20.20;45.60;;;;;;10425809;28;20671;-73
2021/07/25 05:11:18;;;;;;;4.03;3.73;;;20.20;45.90;;;;;;10439514;28;20229;-74
2021/07/25 05:16:26;;;;;;;5.07;4.10;;;20.20;46.60;;;;;;10449856;28;20232;-74
2021/07/25 05:21:35;;;;;;;10.60;4.53;;;20.30;46.10;;;;;;10449000;28;20732;-74
2021/07/25 05:26:42;;;;;;;7.60;4.30;;;20.30;45.80;;;;;;10449764;28;20235;-74
2021/07/25 05:31:46;;;;;;;6.17;4.30;;;20.30;46.20;;;;;;10449361;28;20232;-74
2021/07/25 05:36:49;;;;;;;8.57;4.47;;;20.30;45.30;;;;;;10449304;28;20233;-74
2021/07/25 05:41:53;;;;;;;7.37;4.40;;;20.30;45.30;;;;;;10449328;28;20233;-74
2021/07/25 05:46:56;;;;;;;5.87;4.10;;;20.30;46.10;;;;;;10449034;28;20229;-74
2021/07/25 05:52:00;;;;;;;4.87;3.73;;;20.30;45.50;;;;;;10407696;28;20256;-74
2021/07/25 05:57:05;;;;;;;5.77;3.87;;;20.40;45.90;;;;;;10407660;28;20243;-73
2021/07/25 06:02:08;;;;;;;7.37;4.60;;;20.40;46.70;;;;;;10407906;28;20233;-73
2021/07/25 06:07:11;;;;;;;5.10;4.10;;;20.40;45.90;;;;;;10407682;28;20651;-73
2021/07/25 06:12:16;;;;;;;5.47;4.13;;;20.50;46.10;;;;;;10407677;28;20233;-73
2021/07/25 06:17:19;;;;;;;5.00;4.00;;;20.50;46.90;;;;;;10407509;28;20712;-73
2021/07/25 06:22:22;;;;;;;5.47;4.23;;;20.60;46.40;;;;;;10407042;28;20237;-73
2021/07/25 06:27:27;;;;;;;4.33;3.93;;;20.70;46.40;;;;;;10407145;28;20225;-73
2021/07/25 06:32:30;;;;;;;5.20;4.30;;;20.80;47.00;;;;;;10414244;28;20233;-73
2021/07/25 06:37:35;;;;;;;5.40;4.47;;;20.90;46.50;;;;;;10415060;28;20227;-75
2021/07/25 06:42:39;;;;;;;5.63;4.53;;;20.90;46.60;;;;;;10414685;28;20240;-75
2021/07/25 06:47:47;;;;;;;5.07;4.37;;;21.00;47.60;;;;;;10414761;28;20233;-76
2021/07/25 06:52:51;;;;;;;5.07;4.27;;;21.10;48.10;;;;;;10414538;28;20236;-75
2021/07/25 06:57:55;;;;;;;6.00;4.07;;;21.10;46.70;;;;;;10429408;28;20231;-73
2021/07/25 07:02:58;;;;;;;5.07;4.53;;;21.10;47.40;;;;;;10445832;28;20229;-74
2021/07/25 07:08:03;;;;;;;5.17;4.67;;;21.20;46.90;;;;;;10454696;28;20240;-74
2021/07/25 07:13:09;;;;;;;5.60;4.57;;;21.20;47.10;;;;;;10454510;28;20233;-74
2021/07/25 07:18:13;;;;;;;6.83;4.80;;;21.30;47.80;;;;;;10454164;28;20597;-74
2021/07/25 07:23:21;;;;;;;7.07;4.87;;;21.30;46.80;;;;;;10454357;28;20237;-74
2021/07/25 07:28:25;;;;;;;4.87;4.47;;;21.40;47.20;;;;;;10454087;28;20263;-74
2021/07/25 07:33:28;;;;;;;5.83;5.27;;;21.50;47.70;;;;;;10454181;28;20351;-74
2021/07/25 07:38:32;;;;;;;6.23;4.97;;;21.50;47.00;;;;;;10453826;28;20227;-74
2021/07/25 07:43:38;;;;;;;5.13;4.63;;;21.50;47.20;;;;;;10452651;28;20239;-74
2021/07/25 07:48:41;;;;;;;5.50;4.93;;;21.60;47.80;;;;;;10453548;28;20231;-74
2021/07/25 07:53:44;;;;;;;5.20;4.70;;;21.70;47.40;;;;;;10453215;28;20731;-74
2021/07/25 07:58:48;;;;;;;6.17;4.40;;;21.70;47.40;;;;;;10453467;28;20263;-74
2021/07/25 08:03:52;;;;;;;6.10;4.80;;;21.80;48.00;;;;;;10452858;28;20244;-74
2021/07/25 08:08:55;;;;;;;4.83;4.43;;;21.90;47.90;;;;;;10452997;28;20233;-73
2021/07/25 08:13:59;;;;;;;5.73;4.47;;;22.00;48.40;;;;;;10452925;28;20235;-74
2021/07/25 08:19:03;;;;;;;5.67;5.03;;;22.10;48.10;;;;;;10452111;28;20598;-73
2021/07/25 08:24:06;;;;;;;4.53;4.13;;;22.10;46.90;;;;;;10452272;28;20225;-73
2021/07/25 08:29:11;;;;;;;7.17;4.77;;;22.20;48.00;;;;;;10451763;28;20239;-73
2021/07/25 08:34:14;;;;;;;5.33;4.73;;;22.20;47.50;;;;;;10451746;28;20583;-73
2021/07/25 08:39:17;;;;;;;5.00;4.60;;;22.20;47.00;;;;;;10451932;28;20229;-73
2021/07/25 08:44:41;;;;;;;5.03;4.63;;;22.20;46.90;;;;;;10451207;28;20534;-74
2021/07/25 08:49:55;;;;;;;5.63;4.43;;;22.20;47.50;;;;;;10451346;28;20232;-73
2021/07/25 08:55:00;;;;;;;5.53;5.03;;;22.20;48.20;;;;;;10450886;28;20609;-74
2021/07/25 09:00:09;;;;;;;6.27;5.17;;;22.20;47.70;;;;;;10450917;28;20229;-73
2021/07/25 09:05:13;;;;;;;5.70;5.00;;;22.20;48.10;;;;;;10450560;28;20232;-73
2021/07/25 09:10:18;;;;;;;5.70;5.20;;;22.20;47.50;;;;;;10450806;28;20233;-74
2021/07/25 09:15:24;;;;;;;5.30;4.90;;;22.20;47.30;;;;;;10450023;28;20275;-74
2021/07/25 09:20:29;;;;;;;6.07;5.00;;;22.20;47.50;;;;;;10450053;28;20713;-75
2021/07/25 09:25:38;;;;;;;5.87;5.20;;;22.10;47.30;;;;;;10449445;28;20601;-74
2021/07/25 09:30:43;;;;;;;5.47;4.97;;;22.10;47.90;;;;;;10449490;28;20235;-75
2021/07/25 09:35:46;;;;;;;5.33;4.83;;;22.20;48.60;;;;;;10448485;28;20233;-75
2021/07/25 09:40:50;;;;;;;6.07;5.47;;;22.10;47.30;;;;;;10449489;28;20252;-74
2021/07/25 09:45:59;;;;;;;5.47;4.80;;;22.10;47.30;;;;;;10449466;28;20609;-73
2021/07/25 09:51:04;;;;;;;6.10;5.60;;;22.10;48.50;;;;;;10448989;28;20225;-74
2021/07/25 09:56:23;;;;;;;6.40;5.70;;;22.10;48.20;;;;;;10449084;28;20231;-73
2021/07/25 10:01:39;;;;;;;6.90;6.20;;;22.20;48.90;;;;;;10448586;28;20229;-73
2021/07/25 10:06:44;;;;;;;6.87;6.27;;;22.20;49.80;;;;;;10453720;28;20234;-74
2021/07/25 10:11:49;;;;;;;6.13;5.53;;;22.30;48.80;;;;;;10457234;28;20264;-74
2021/07/25 10:16:56;;;;;;;6.27;5.60;;;22.40;49.10;;;;;;10457376;28;20693;-73
2021/07/25 10:22:00;;;;;;;5.30;4.90;;;22.50;49.10;;;;;;10456682;28;20239;-72
2021/07/25 10:27:05;;;;;;;5.30;4.80;;;22.50;48.50;;;;;;10456456;28;20221;-73
2021/07/25 10:32:11;;;;;;;4.73;4.30;;;22.50;48.50;;;;;;10456211;28;20233;-73
2021/07/25 10:37:15;;;;;;;4.90;4.13;;;22.60;48.70;;;;;;10455789;28;20235;-73
2021/07/25 10:42:22;;;;;;;4.97;4.47;;;22.60;48.30;;;;;;10455773;28;20603;-73
2021/07/25 10:47:28;;;;;;;5.47;4.33;;;22.70;49.00;;;;;;10374149;22;20226;-85
2021/07/25 10:53:01;;;;;;;5.63;3.57;;;22.80;48.30;;;;;;10330334;28;20597;-85
2021/07/25 10:58:05;;;;;;;4.23;3.83;;;22.90;49.20;;;;;;10326594;28;20219;-85
2021/07/25 11:03:30;;;;;;;4.27;3.87;;;23.10;48.20;;;;;;10330283;28;20254;-85
2021/07/25 11:08:35;;;;;;;3.77;3.47;;;23.20;48.20;;;;;;10334562;28;20617;-85
2021/07/25 11:13:42;;;;;;;3.80;3.33;;;23.40;47.40;;;;;;10329826;28;20671;-86
2021/07/25 11:18:49;;;;;;;3.70;3.40;;;23.60;46.70;;;;;;10327107;28;20230;-86
2021/07/25 11:23:52;;;;;;;3.50;3.20;;;23.70;46.60;;;;;;10329518;28;20259;-86
2021/07/25 11:28:55;;;;;;;3.70;3.40;;;23.90;46.80;;;;;;10330749;28;20237;-86
2021/07/25 11:34:00;;;;;;;3.40;3.10;;;24.10;46.20;;;;;;10328725;28;20231;-86
2021/07/25 11:39:06;;;;;;;3.33;3.03;;;24.30;45.10;;;;;;10329032;28;20219;-86
2021/07/25 11:44:10;;;;;;;3.30;3.10;;;24.40;45.30;;;;;;10328210;28;20310;-86
2021/07/25 11:49:20;;;;;;;3.07;2.83;;;24.50;45.00;;;;;;10329272;28;20314;-86
2021/07/25 11:54:25;;;;;;;3.20;2.90;;;24.70;44.00;;;;;;10331901;28;20227;-87
2021/07/25 11:59:30;;;;;;;3.60;3.33;;;24.70;44.20;;;;;;10328777;28;20310;-87
2021/07/25 12:04:36;;;;;;;3.40;3.13;;;24.90;43.90;;;;;;10327584;28;20226;-86
2021/07/25 12:09:40;;;;;;;3.20;3.00;;;24.90;43.30;;;;;;10315456;28;20307;-86
2021/07/25 12:14:45;;;;;;;3.17;2.97;;;24.90;43.40;;;;;;10324572;28;20735;-87
2021/07/25 12:19:50;;;;;;;5.17;4.77;;;25.00;43.60;;;;;;10326860;28;20310;-86
2021/07/25 12:24:55;;;;;;;4.60;4.20;;;25.00;43.70;;;;;;10325332;28;20227;-86
2021/07/25 12:30:16;;;;;;;3.97;3.67;;;25.00;43.60;;;;;;10326355;28;20233;-86
2021/07/25 12:35:24;;;;;;;4.30;4.00;;;25.00;43.10;;;;;;10325346;28;20242;-87
2021/07/25 12:40:31;;;;;;;4.57;4.27;;;25.00;42.80;;;;;;10324016;28;20330;-86
2021/07/25 12:45:40;;;;;;;4.50;4.20;;;25.00;43.80;;;;;;10323901;28;20223;-86
2021/07/25 12:50:46;;;;;;;4.93;4.10;;;25.00;43.30;;;;;;10326029;28;20349;-86
2021/07/25 12:55:50;;;;;;;5.17;4.80;;;25.10;43.70;;;;;;10325726;28;21110;-86
2021/07/25 13:06:35;;;;;;;5.03;4.63;;;25.20;43.60;;;;;;10321754;28;20223;-86
2021/07/25 13:11:42;;;;;;;5.70;5.20;;;25.20;43.40;;;;;;10324708;28;20706;-86
2021/07/25 13:16:47;;;;;;;5.30;4.90;;;25.30;43.30;;;;;;10321699;28;20293;-86
2021/07/25 13:21:53;;;;;;;5.50;5.00;;;25.40;43.10;;;;;;10324042;28;20810;-86
2021/07/25 13:26:57;;;;;;;5.03;4.53;;;25.40;42.30;;;;;;10323540;28;20230;-85
2021/07/25 13:32:00;;;;;;;5.40;5.00;;;25.30;42.80;;;;;;10323284;28;20270;-85
2021/07/25 13:37:05;;;;;;;5.33;4.83;;;25.40;42.80;;;;;;10350075;28;20866;-85
2021/07/25 13:42:10;;;;;;;5.23;4.83;;;25.40;42.40;;;;;;10331411;28;20293;-85
2021/07/25 13:47:14;;;;;;;5.53;5.13;;;25.40;42.40;;;;;;10331095;28;20226;-85
2021/07/25 13:52:18;;;;;;;4.83;4.50;;;25.50;42.90;;;;;;10322704;28;20231;-86
2021/07/25 13:57:22;;;;;;;5.27;4.87;;;25.50;42.00;;;;;;10323203;28;20628;-85
2021/07/25 14:02:26;;;;;;;5.27;4.87;;;25.50;41.80;;;;;;10323567;28;20222;-85
2021/07/25 14:07:32;;;;;;;5.97;5.47;;;25.40;42.20;;;;;;10319253;28;20227;-86
2021/07/25 14:12:35;;;;;;;5.70;5.20;;;25.40;42.30;;;;;;10322935;28;20237;-86
2021/07/25 14:17:38;;;;;;;5.50;5.10;;;25.40;42.70;;;;;;10323966;28;20233;-86
2021/07/25 14:22:43;;;;;;;5.63;5.13;;;25.40;42.50;;;;;;10323808;28;20231;-85
2021/07/25 14:27:47;;;;;;;6.33;5.83;;;25.50;42.80;;;;;;10319356;28;20226;-86
2021/07/25 14:32:51;;;;;;;6.57;5.50;;;25.60;42.90;;;;;;10321499;28;20254;-85
2021/07/25 14:37:56;;;;;;;5.73;5.33;;;25.70;42.70;;;;;;10322515;28;20305;-85
2021/07/25 14:43:02;;;;;;;5.77;5.27;;;25.70;43.00;;;;;;10322730;28;20251;-86
2021/07/25 14:48:06;;;;;;;5.67;5.23;;;25.90;42.40;;;;;;10320137;28;20318;-89
2021/07/25 14:53:11;;;;;;;5.07;4.77;;;26.00;41.60;;;;;;10327780;28;20237;-87
2021/07/25 14:58:14;;;;;;;5.47;5.03;;;26.10;41.60;;;;;;10329331;28;20802;-86
2021/07/25 15:03:18;;;;;;;4.83;4.53;;;26.10;41.60;;;;;;10331645;28;20905;-88
2021/07/25 15:08:22;;;;;;;5.57;5.17;;;26.20;41.70;;;;;;10333437;28;20233;-88
2021/07/25 15:13:27;;;;;;;5.40;5.00;;;26.30;41.80;;;;;;10331145;28;20246;-88
2021/07/25 15:18:30;;;;;;;4.90;4.60;;;26.40;40.60;;;;;;10331080;28;20219;-88
2021/07/25 15:23:36;;;;;;;6.93;5.30;;;26.50;41.00;;;;;;10330803;28;20698;-89
2021/07/25 15:28:39;;;;;;;5.60;5.20;;;26.60;40.60;;;;;;10327829;28;20363;-89
2021/07/25 15:33:42;;;;;;;4.80;4.40;;;26.60;40.70;;;;;;10330793;28;20577;-89
2021/07/25 15:38:47;;;;;;;5.80;5.30;;;26.70;40.40;;;;;;10331364;28;20273;-88
2021/07/25 15:43:50;;;;;;;5.00;4.60;;;26.70;40.20;;;;;;10329616;28;20230;-89
2021/07/25 15:48:53;;;;;;;5.00;4.70;;;26.80;40.10;;;;;;10329135;28;20876;-90
2021/07/25 15:53:58;;;;;;;5.63;5.23;;;26.80;40.00;;;;;;10330274;28;20589;-89
2021/07/25 15:59:01;;;;;;;5.53;5.13;;;26.70;39.40;;;;;;10329560;28;20223;-89
2021/07/25 16:04:06;;;;;;;6.00;5.50;;;26.70;40.20;;;;;;10328364;28;20665;-89
2021/07/25 16:09:19;;;;;;;5.70;5.20;;;26.70;39.80;;;;;;10326710;28;20219;-89
2021/07/25 16:14:22;;;;;;;5.50;5.13;;;26.60;39.40;;;;;;10329518;28;20230;-89
2021/07/25 16:19:25;;;;;;;5.53;5.13;;;26.60;40.00;;;;;;10329521;28;20227;-89
2021/07/25 16:24:31;;;;;;;5.53;5.03;;;26.60;39.80;;;;;;10328636;28;20310;-89
2021/07/25 16:29:34;;;;;;;5.67;5.17;;;26.50;40.30;;;;;;10326689;28;20223;-90
2021/07/25 16:34:37;;;;;;;5.57;5.17;;;26.50;40.40;;;;;;10326503;28;20258;-89
2021/07/25 16:39:42;;;;;;;5.40;5.00;;;26.40;40.20;;;;;;10328515;28;20596;-90
2021/07/25 16:44:45;;;;;;;5.50;5.03;;;26.40;40.30;;;;;;10329192;28;20229;-90
2021/07/25 16:49:49;;;;;;;5.37;4.97;;;26.30;40.50;;;;;;10329465;28;20483;-89
2021/07/25 16:54:54;;;;;;;5.33;4.93;;;26.20;40.60;;;;;;10329722;28;20223;-88
2021/07/25 17:00:02;;;;;;;5.63;5.13;;;26.10;40.80;;;;;;10329225;28;20251;-89
2021/07/25 17:05:05;;;;;;;5.27;4.87;;;26.10;41.30;;;;;;10329019;28;20233;-90
2021/07/25 17:10:13;;;;;;;6.00;5.50;;;26.00;41.10;;;;;;10333693;28;20299;-88
2021/07/25 17:15:27;;;;;;;5.43;5.03;;;26.00;41.40;;;;;;10324211;28;20227;-88
2021/07/25 17:20:36;;;;;;;5.97;5.57;;;26.00;41.50;;;;;;10334606;28;20226;-88
2021/07/25 17:26:02;;;;;;;5.53;5.03;;;26.00;40.90;;;;;;10313371;28;20253;-87
2021/07/25 17:31:05;;;;;;;5.07;4.60;;;25.90;40.40;;;;;;10351976;28;20227;-87
2021/07/25 17:36:12;;;;;;;6.00;5.03;;;25.90;40.90;;;;;;10323806;28;20653;-87
2021/07/25 17:41:18;;;;;;;5.07;4.60;;;25.80;41.00;;;;;;10325416;28;20227;-88
2021/07/25 17:46:21;;;;;;;4.93;4.57;;;25.70;41.20;;;;;;10322140;28;20787;-88
2021/07/25 17:51:34;;;;;;;5.07;4.57;;;25.70;41.30;;;;;;10325425;28;20238;-90
2021/07/25 17:56:40;;;;;;;5.40;4.50;;;25.70;41.30;;;;;;10324813;28;20305;-90
2021/07/25 18:01:43;;;;;;;4.50;4.20;;;25.80;41.40;;;;;;10326972;28;20814;-89
2021/07/25 18:06:48;;;;;;;4.47;4.07;;;25.80;41.40;;;;;;10325219;28;20254;-89
2021/07/25 18:11:55;;;;;;;4.60;4.30;;;25.90;41.20;;;;;;10327118;28;20231;-88
2021/07/25 18:17:01;;;;;;;5.07;4.67;;;25.90;40.90;;;;;;10327016;28;20227;-89
2021/07/25 18:22:09;;;;;;;4.60;4.30;;;25.80;41.20;;;;;;10326983;28;20231;-87
2021/07/25 18:27:24;;;;;;;4.90;4.50;;;25.80;41.40;;;;;;10311601;28;20242;-88
2021/07/25 18:32:38;;;;;;;4.77;4.47;;;25.70;41.30;;;;;;10344373;28;20231;-85
2021/07/25 18:37:49;;;;;;;5.83;4.70;;;25.70;41.30;;;;;;10306002;28;20231;-86
2021/07/25 18:42:57;;;;;;;4.77;4.37;;;25.70;41.20;;;;;;10293335;28;20235;-86
2021/07/25 18:48:05;;;;;;;4.73;4.43;;;25.50;41.20;;;;;;10299686;28;20223;-87
2021/07/25 18:53:15;;;;;;;5.37;4.90;;;25.60;41.30;;;;;;10318609;28;20265;-89
2021/07/25 18:58:43;;;;;;;4.33;4.03;;;25.50;41.20;;;;;;10320067;28;20931;-89
2021/07/25 19:04:51;;;;;;;4.70;4.30;;;25.50;41.30;;;;;;10335467;28;20239;-90
2021/07/25 19:10:27;;;;;;;4.83;4.43;;;25.40;41.20;;;;;;10384759;23;20224;-71
2021/07/25 19:15:32;;;;;;;5.10;4.70;;;25.20;41.00;;;;;;10480220;28;20255;-71
2021/07/25 19:20:53;;;;;;;4.57;4.27;;;25.10;41.00;;;;;;10486574;28;20240;-71
2021/07/25 19:26:18;;;;;;;4.80;4.40;;;25.00;40.90;;;;;;10485327;28;20300;-71
2021/07/25 19:31:43;;;;;;;4.80;4.40;;;24.90;41.30;;;;;;10487246;28;20232;-71
2021/07/25 19:37:07;;;;;;;6.23;4.87;;;24.90;41.80;;;;;;10486716;28;20220;-71
2021/07/25 19:42:10;;;;;;;4.77;4.37;;;24.80;41.50;;;;;;10482760;28;20231;-73
2021/07/25 19:47:15;;;;;;;4.53;4.23;;;24.80;41.60;;;;;;10488021;28;20230;-71
2021/07/25 19:52:31;;;;;;;4.87;4.47;;;24.70;41.80;;;;;;10487474;28;20258;-71
2021/07/25 19:57:46;;;;;;;4.80;4.30;;;24.70;41.60;;;;;;10486666;28;20227;-72
2021/07/25 20:03:08;;;;;;;5.10;4.63;;;24.70;41.70;;;;;;10478076;28;20266;-72
2021/07/25 20:08:12;;;;;;;5.27;4.80;;;24.60;41.80;;;;;;10487145;28;20220;-72
2021/07/25 20:13:15;;;;;;;4.77;4.30;;;24.60;41.70;;;;;;10488846;28;20232;-72
2021/07/25 20:18:21;;;;;;;4.43;3.87;;;24.50;41.90;;;;;;10492152;28;20228;-71
2021/07/25 20:23:25;;;;;;;4.33;3.90;;;24.40;41.80;;;;;;10492824;28;20224;-71
2021/07/25 20:28:28;;;;;;;4.27;3.80;;;24.30;41.50;;;;;;10494222;28;20228;-71
2021/07/25 20:33:33;;;;;;;4.17;3.87;;;24.30;41.70;;;;;;10492346;28;20579;-72
2021/07/25 20:38:36;;;;;;;4.63;4.10;;;24.10;42.20;;;;;;10491078;28;20216;-72
2021/07/25 20:43:40;;;;;;;3.97;3.67;;;24.00;42.30;;;;;;10491385;28;20220;-71
2021/07/25 20:48:46;;;;;;;4.10;3.80;;;24.00;42.50;;;;;;10483226;28;20220;-72
2021/07/25 20:54:04;;;;;;;4.10;3.70;;;23.90;42.70;;;;;;10482434;28;20714;-71
2021/07/25 20:59:26;;;;;;;3.87;3.60;;;23.90;42.70;;;;;;10483873;28;20240;-71
2021/07/25 21:04:30;;;;;;;4.37;3.97;;;23.90;42.70;;;;;;10489968;28;20232;-72
2021/07/25 21:09:34;;;;;;;4.27;3.83;;;23.80;42.90;;;;;;10440816;28;20563;-71
2021/07/25 21:14:37;;;;;;;5.47;3.87;;;23.80;42.90;;;;;;10444474;28;20283;-71
2021/07/25 21:19:41;;;;;;;5.17;4.67;;;23.80;43.00;;;;;;10442495;28;20220;-72
2021/07/25 21:24:45;;;;;;;5.07;4.57;;;23.80;43.30;;;;;;10443427;28;20221;-72
2021/07/25 21:29:48;;;;;;;4.80;4.40;;;23.80;43.20;;;;;;10443722;28;20236;-71
2021/07/25 21:34:53;;;;;;;5.37;4.07;;;23.80;43.00;;;;;;10445821;28;20601;-71
2021/07/25 21:39:57;;;;;;;4.10;3.80;;;23.70;43.10;;;;;;10433914;28;20225;-71
2021/07/25 21:45:00;;;;;;;5.40;5.00;;;23.70;43.00;;;;;;10443966;28;20371;-72
2021/07/25 21:50:06;;;;;;;5.27;4.80;;;23.60;42.80;;;;;;10436522;28;20231;-72
2021/07/25 21:55:10;;;;;;;4.97;4.57;;;23.60;43.30;;;;;;10429949;28;20227;-72
2021/07/25 22:00:16;;;;;;;5.63;5.13;;;23.50;43.00;;;;;;10440336;28;20697;-71
2021/07/25 22:05:21;;;;;;;5.90;5.40;;;23.40;43.10;;;;;;10444011;28;20231;-71
2021/07/25 22:10:25;;;;;;;5.13;4.73;;;23.30;43.50;;;;;;10439534;28;20256;-71
2021/07/25 22:15:28;;;;;;;4.53;3.97;;;23.20;43.40;;;;;;10433578;28;20221;-71
2021/07/25 22:20:32;;;;;;;5.97;4.47;;;23.00;43.30;;;;;;10433388;28;20615;-71
2021/07/25 22:25:36;;;;;;;4.63;4.23;;;22.90;43.80;;;;;;10439667;28;20676;-71
2021/07/25 22:30:39;;;;;;;5.17;4.67;;;22.90;43.70;;;;;;10443930;28;20227;-72
2021/07/25 22:35:44;;;;;;;5.63;4.93;;;22.90;43.60;;;;;;10445281;28;20897;-71
2021/07/25 22:40:47;;;;;;;4.77;4.47;;;22.90;44.00;;;;;;10438282;28;20609;-71
2021/07/25 22:45:50;;;;;;;4.77;4.30;;;22.90;43.60;;;;;;10438094;28;20232;-72
2021/07/25 22:50:59;;;;;;;5.47;4.97;;;22.90;43.60;;;;;;10441480;28;20225;-71
2021/07/25 22:56:02;;;;;;;5.03;4.63;;;22.80;43.80;;;;;;10479472;28;20224;-72
2021/07/25 23:01:06;;;;;;;7.90;4.73;;;22.90;43.60;;;;;;10476557;28;20453;-72
2021/07/25 23:06:10;;;;;;;5.73;5.00;;;22.80;43.40;;;;;;10477776;28;20320;-71
2021/07/25 23:11:14;;;;;;;4.47;4.17;;;22.80;43.60;;;;;;10468528;28;20236;-72
2021/07/25 23:16:17;;;;;;;4.87;4.47;;;22.60;43.40;;;;;;10477623;28;20233;-72
2021/07/25 23:21:21;;;;;;;4.90;4.50;;;22.60;43.50;;;;;;10442055;28;20226;-71
2021/07/25 23:26:24;;;;;;;5.47;4.97;;;22.60;44.00;;;;;;10442149;28;20229;-72
2021/07/25 23:31:28;;;;;;;4.73;4.33;;;22.50;43.50;;;;;;10439343;28;20233;-72
2021/07/25 23:36:35;;;;;;;4.43;4.10;;;22.40;43.70;;;;;;10440360;28;20225;-72
2021/07/25 23:41:38;;;;;;;6.37;4.80;;;22.30;44.20;;;;;;10440655;28;20221;-72
2021/07/25 23:46:41;;;;;;;5.23;4.77;;;22.20;43.90;;;;;;10443195;28;20235;-72
2021/07/25 23:51:46;;;;;;;4.83;4.43;;;22.10;43.70;;;;;;10444854;28;20312;-71
2021/07/25 23:56:49;;;;;;;5.53;5.03;;;22.00;44.20;;;;;;10436689;28;20233;-72
